Chapin, South Carolina
Current Conditions -  °F | °C
As of 9:15 AM on Monday 22 Dec 2014 (Local Time) from KFDW Reporting Station
Haze Haze  
Wind Chill: 36°   Ceiling: 300
Heat Index: 41°   Visibility: 3mi
Dew Point: 41°   Wind: 8mph
Humidity: 100%   Direction: 40°NE
Pressure: 30.1"   Gusts: NA
Location:  34.17°N, 81.35°W
Report Text: KFDW 221415Z AUTO 04007KT 3SM BR OVC003 05/05 A3010 RMK AO1
Loading
Personal Weather Stations






























Interactive Weather Map New forecast layout! Learn more

10-Day Weather Forecast

Advertisements
Track Severe Weather on mobile